Christine, ND

9:59 AM CDT on October 24, 2014 (GMT -0500)
South Fargo | Change Station
CLOSE
Current Station
Personal Weather Station
Location: Fargo, ND
Elevation: 274 m
Nearby Weather Stations

Elev 274 m 46.82 °N, 96.86 °W | Updated 4 minutes ago

Clear
Clear
8.9 °C
Feels Like 9 °C
N
0.0
Wind Variable Wind from South
Gusts 8.0 km/h

Today
High -- | Low -- °C
--% Chance of Precip.
Yesterday
High -- | Low -- °C
Precip. -- mm
7:57 AM 6:24 PM
New Moon, 1% visible
Pressure 1010 hPa
Visibility 16.1 kilometers
Clouds Clear
Windchill 9 °C
Dew Point 7 °C
Humidity 87%
Rainfall -25375 mm
Snow Depth Not available.
UV 1 out of 12
Pollen 2.00 out of 12
Air Quality Not available.
Flu Activity Local Activity
METAR KBWP 241435Z AUTO 20003KT 10SM CLR 06/03 A2984 RMK AO1

More Conditions Fewer Conditions

Pressure 1010 hPa
Visibility 16.1 kilometers
Clouds Clear
Windchill 9 °C
Dew Point 7 °C
Humidity 87%
Rainfall -25375 mm
Snow Depth Not available.
UV 1 out of 12
Pollen 2.00 out of 12
Air Quality Not available.
Flu Activity Local Activity
METAR KBWP 241435Z AUTO 20003KT 10SM CLR 06/03 A2984 RMK AO1

More Conditions Fewer Conditions

10-Day Weather Forecast

Almanac

Astronomy

Oct. 24, 2014 Rise Set
Actual Time 7:57 AM CDT 6:24 PM CDT
Civil Twilight 7:26 AM CDT 6:55 PM CDT
Nautical Twilight 6:51 AM CDT 7:30 PM CDT
Astronomical Twilight 6:16 AM CDT 8:05 PM CDT
Moon 8:39 AM CDT 7:02 PM CDT
Length of Visible Light 11h 29m
Length of Day
10h 27m
Tomorrow will be 3m 5s shorter.
New Moon, 1% of the Moon is Illuminated
Today
New Moon
Oct 30
First Quarter
Nov 6
Full
Nov 14
Last Quarter
Nov 22
New

Today's Extremes

State Highs State Lows

Community

WunderPhotos

Upload Photos

1,764,581 photos uploaded!

Nearby

Snow Depth

Station Depth Elevation
No new snow has been reported.

Earthquake Activity

City Distance Mag. Time & Date
No recent earthquake activity has been reported nearby.
Minimum magnitude displayed is 2.5.

Coastal Water Temperatures

Place Temperature
No Stations Reporting

Nearby Weather Stations